Terminal Aerodrome Forecast
Issued by NWS

Home | Current Version | Previous Version | Text Only | Print | Product List | Glossary On
Versions: 1 2 3 4 5 6 7 8 9 10 11 12 13 14 15 16 17 18 19 20 21 22
000
FTUS45 KLKN 231626 AAB
TAFEKO
TAF AMD
KEKO 231626Z 2316/2412 VRB03KT P6SM OVC004
     FM231700 VRB06KT P6SM FEW010 SCT120
     FM232000 33008KT P6SM VCSH SCT060 BKN100
     FM240300 VRB06KT P6SM FEW060=

USA.gov is the U.S. government's official web portal to all federal, state and local government web resources and services.